Time;durP1;ratioP1;P1;durP2;ratioP2;P2;SDS_P1;SDS_P2;PMS_P1;PMS_P2;Temp;Humidity;BMP_temperature;BMP_pressure;BME280_temperature;BME280_humidity;BME280_pressure;Samples;Min_cycle;Max_cycle;Signal;HPM_P1;HPM_P2
2022/01/13 00:01:10;;;;;;;1.60;1.40;;;3.40;98.20;;;;;;4991629;28;20877;-74
2022/01/13 00:03:38;;;;;;;1.67;1.40;;;3.30;98.20;;;;;;4991525;28;20931;-74
2022/01/13 00:06:05;;;;;;;1.63;1.40;;;3.30;98.20;;;;;;4985267;28;20466;-74
2022/01/13 00:08:32;;;;;;;1.70;1.40;;;3.30;98.20;;;;;;4991747;28;20464;-75
2022/01/13 00:10:58;;;;;;;1.70;1.53;;;3.30;98.20;;;;;;4988432;28;20465;-74
2022/01/13 00:13:31;;;;;;;1.67;1.40;;;3.30;98.20;;;;;;4992300;28;20469;-74
2022/01/13 00:16:23;;;;;;;1.63;1.40;;;3.40;98.20;;;;;;4988983;28;21045;-74
2022/01/13 00:19:04;;;;;;;1.60;1.40;;;3.40;98.20;;;;;;4990053;28;20456;-74
2022/01/13 00:21:35;;;;;;;1.70;1.47;;;3.40;98.20;;;;;;4989352;28;20487;-74
2022/01/13 00:24:04;;;;;;;1.70;1.40;;;3.40;98.20;;;;;;4992489;28;20495;-74
2022/01/13 00:26:33;;;;;;;1.60;1.30;;;3.40;98.20;;;;;;4994758;28;20464;-74
2022/01/13 00:29:02;;;;;;;1.90;1.67;;;3.40;98.20;;;;;;4994443;28;20977;-74
2022/01/13 00:31:33;;;;;;;1.60;1.40;;;3.40;98.20;;;;;;4990331;28;20583;-74
2022/01/13 00:34:03;;;;;;;1.70;1.50;;;3.40;98.20;;;;;;4991087;28;20464;-74
2022/01/13 00:36:33;;;;;;;3.17;2.87;;;3.40;98.20;;;;;;4987162;28;20473;-74
2022/01/13 00:39:00;;;;;;;1.67;1.30;;;3.40;98.20;;;;;;4986773;28;21119;-74
2022/01/13 00:41:29;;;;;;;1.60;1.40;;;3.40;98.20;;;;;;4990479;28;21001;-74
2022/01/13 00:43:56;;;;;;;1.67;1.40;;;3.40;98.20;;;;;;4988430;28;20575;-73
2022/01/13 00:46:26;;;;;;;1.70;1.50;;;3.40;98.20;;;;;;4991732;28;20523;-74
2022/01/13 00:48:54;;;;;;;1.70;1.50;;;3.40;98.20;;;;;;4989143;28;20461;-75
2022/01/13 00:51:24;;;;;;;1.67;1.40;;;3.40;98.20;;;;;;4990496;28;21157;-74
2022/01/13 00:53:52;;;;;;;1.70;1.50;;;3.40;98.20;;;;;;4989012;28;20461;-74
2022/01/13 00:56:20;;;;;;;3.83;3.63;;;3.40;98.20;;;;;;4992847;28;20465;-74
2022/01/13 00:58:47;;;;;;;1.70;1.40;;;3.40;98.20;;;;;;4993669;28;20471;-74
2022/01/13 01:01:14;;;;;;;1.63;1.40;;;3.40;98.20;;;;;;4993390;28;20743;-75
2022/01/13 01:03:41;;;;;;;1.70;1.40;;;3.40;98.20;;;;;;4990259;28;20496;-73
2022/01/13 01:06:08;;;;;;;1.63;1.47;;;3.40;98.20;;;;;;4990530;28;20491;-74
2022/01/13 01:08:37;;;;;;;1.63;1.40;;;3.40;98.20;;;;;;4988733;28;20836;-75
2022/01/13 01:11:05;;;;;;;1.70;1.40;;;3.40;98.20;;;;;;4990611;28;20476;-74
2022/01/13 01:13:34;;;;;;;1.60;1.30;;;3.40;98.20;;;;;;4990129;28;20955;-74
2022/01/13 01:16:04;;;;;;;1.70;1.50;;;3.40;98.20;;;;;;4987495;28;20478;-74
2022/01/13 01:18:38;;;;;;;1.70;1.60;;;3.40;98.20;;;;;;4989338;28;20556;-75
2022/01/13 01:21:35;;;;;;;3.87;3.67;;;3.40;98.20;;;;;;4986600;28;20468;-74
2022/01/13 01:26:48;;;;;;;1.70;1.50;;;3.40;98.20;;;;;;4988101;28;20584;-74
2022/01/13 01:29:21;;;;;;;1.70;1.40;;;3.40;98.20;;;;;;4991806;28;20465;-74
2022/01/13 01:31:51;;;;;;;1.67;1.40;;;3.40;98.20;;;;;;4988715;28;20489;-74
2022/01/13 01:34:33;;;;;;;1.70;1.50;;;3.40;98.20;;;;;;4990496;28;20469;-74
2022/01/13 01:37:00;;;;;;;1.60;1.30;;;3.40;98.20;;;;;;4985865;28;20481;-74
2022/01/13 01:39:28;;;;;;;1.67;1.40;;;3.40;98.20;;;;;;4990036;28;20465;-74
2022/01/13 01:41:57;;;;;;;1.67;1.40;;;3.40;98.20;;;;;;4989780;28;20889;-74
2022/01/13 01:44:30;;;;;;;1.70;1.40;;;3.40;98.20;;;;;;4989684;28;20493;-74
2022/01/13 01:46:58;;;;;;;1.70;1.43;;;3.40;98.20;;;;;;4984243;28;20461;-74
2022/01/13 01:49:26;;;;;;;1.63;1.40;;;3.40;98.20;;;;;;4983570;28;20463;-73
2022/01/13 01:51:55;;;;;;;1.70;1.47;;;3.40;98.20;;;;;;4983316;28;20543;-74
2022/01/13 01:54:22;;;;;;;1.67;1.40;;;3.40;98.20;;;;;;4989244;28;20958;-74
2022/01/13 01:56:50;;;;;;;1.60;1.40;;;3.40;98.20;;;;;;4988068;28;20472;-74
2022/01/13 01:59:21;;;;;;;1.63;1.40;;;3.40;98.20;;;;;;4996831;28;20476;-74
2022/01/13 02:01:50;;;;;;;1.60;1.30;;;3.30;98.20;;;;;;4988999;28;20485;-74
2022/01/13 02:04:19;;;;;;;1.70;1.43;;;3.30;98.20;;;;;;4989790;28;20504;-74
2022/01/13 02:06:45;;;;;;;1.70;1.50;;;3.30;98.20;;;;;;4989623;28;20472;-74
2022/01/13 02:09:16;;;;;;;1.70;1.43;;;3.30;98.20;;;;;;4983835;28;20476;-74
2022/01/13 02:11:44;;;;;;;1.80;1.70;;;3.30;98.20;;;;;;4992109;28;20496;-74
2022/01/13 02:14:31;;;;;;;1.67;1.40;;;3.30;98.20;;;;;;4988980;28;20832;-74
2022/01/13 02:17:02;;;;;;;1.80;1.70;;;3.30;98.20;;;;;;4989097;28;20497;-74
2022/01/13 02:19:29;;;;;;;1.70;1.50;;;3.30;98.20;;;;;;4980481;28;20605;-74
2022/01/13 02:21:57;;;;;;;1.67;1.40;;;3.30;98.20;;;;;;4977368;28;20481;-73
2022/01/13 02:24:24;;;;;;;1.70;1.40;;;3.30;98.20;;;;;;4990380;28;20485;-74
2022/01/13 02:26:51;;;;;;;1.67;1.40;;;3.30;98.20;;;;;;4981135;28;20474;-74
2022/01/13 02:29:18;;;;;;;1.70;1.40;;;3.30;98.20;;;;;;4974365;28;20628;-74
2022/01/13 02:31:45;;;;;;;1.67;1.40;;;3.30;98.20;;;;;;4986658;28;20486;-74
2022/01/13 02:34:12;;;;;;;1.70;1.60;;;3.30;98.20;;;;;;4988620;28;20475;-74
2022/01/13 02:36:41;;;;;;;1.70;1.40;;;3.20;98.20;;;;;;4988558;28;20464;-74
2022/01/13 02:39:09;;;;;;;1.70;1.47;;;3.30;98.20;;;;;;4986855;28;20468;-74
2022/01/13 02:41:36;;;;;;;5.70;5.30;;;3.20;98.20;;;;;;4987508;28;20883;-74
2022/01/13 02:44:11;;;;;;;1.70;1.50;;;3.30;98.20;;;;;;4987852;28;20500;-74
2022/01/13 02:46:56;;;;;;;1.70;1.50;;;3.30;98.20;;;;;;4988450;28;20547;-74
2022/01/13 02:49:24;;;;;;;1.60;1.40;;;3.20;98.20;;;;;;4987750;28;20469;-74
2022/01/13 02:51:54;;;;;;;1.70;1.40;;;3.20;98.20;;;;;;4985316;28;20488;-74
2022/01/13 02:54:23;;;;;;;1.67;1.40;;;3.20;98.20;;;;;;4987407;28;20472;-74
2022/01/13 02:56:50;;;;;;;1.70;1.50;;;3.20;98.20;;;;;;4990695;28;21014;-73
2022/01/13 02:59:17;;;;;;;1.70;1.50;;;3.20;98.20;;;;;;4991150;28;20461;-74
2022/01/13 03:01:43;;;;;;;1.70;1.50;;;3.20;98.20;;;;;;4988341;28;20489;-74
2022/01/13 03:04:10;;;;;;;1.70;1.60;;;3.10;98.20;;;;;;4987119;28;20485;-74
2022/01/13 03:06:40;;;;;;;1.70;1.40;;;3.10;98.20;;;;;;4988578;28;20480;-74
2022/01/13 03:09:09;;;;;;;1.70;1.40;;;3.10;98.20;;;;;;4987219;28;20461;-75
2022/01/13 03:11:38;;;;;;;1.70;1.60;;;3.10;98.20;;;;;;4987419;28;20503;-74
2022/01/13 03:14:08;;;;;;;1.77;1.67;;;3.00;98.20;;;;;;4987369;28;20847;-74
2022/01/13 03:16:35;;;;;;;1.70;1.50;;;3.00;98.20;;;;;;4988044;28;20472;-74
2022/01/13 03:19:02;;;;;;;1.70;1.47;;;3.00;98.20;;;;;;4986227;28;20484;-74
2022/01/13 03:21:29;;;;;;;1.70;1.43;;;3.00;98.20;;;;;;4987683;28;20993;-74
2022/01/13 03:23:56;;;;;;;1.60;1.40;;;3.00;98.20;;;;;;4986883;28;20492;-74
2022/01/13 03:26:24;;;;;;;1.70;1.50;;;3.00;98.20;;;;;;4987779;28;20465;-74
2022/01/13 03:28:55;;;;;;;1.70;1.50;;;3.00;98.20;;;;;;4990784;28;20476;-74
2022/01/13 03:31:23;;;;;;;1.70;1.50;;;3.00;98.20;;;;;;4987261;28;20488;-74
2022/01/13 03:33:51;;;;;;;1.67;1.50;;;3.00;98.20;;;;;;4988792;28;20461;-74
2022/01/13 03:36:19;;;;;;;3.93;3.73;;;3.00;98.20;;;;;;4987644;28;20469;-74
2022/01/13 03:38:46;;;;;;;1.67;1.40;;;3.00;98.20;;;;;;4987509;28;20472;-74
2022/01/13 03:41:13;;;;;;;1.70;1.40;;;3.00;98.20;;;;;;4986477;28;20800;-75
2022/01/13 03:43:40;;;;;;;1.63;1.40;;;3.00;98.20;;;;;;4986771;28;20493;-74
2022/01/13 03:46:09;;;;;;;1.60;1.40;;;3.00;98.20;;;;;;4987500;28;20465;-75
2022/01/13 03:48:35;;;;;;;1.70;1.60;;;3.00;98.20;;;;;;4987591;28;20921;-74
2022/01/13 03:51:02;;;;;;;1.67;1.40;;;3.00;98.20;;;;;;4987655;28;20473;-75
2022/01/13 03:54:05;;;;;;;1.70;1.53;;;3.00;98.20;;;;;;4987252;28;20530;-74
2022/01/13 03:57:20;;;;;;;1.70;1.60;;;3.00;98.20;;;;;;4988240;28;20471;-74
2022/01/13 04:00:40;;;;;;;1.70;1.50;;;3.00;98.20;;;;;;4966593;28;20476;-74
2022/01/13 04:03:09;;;;;;;1.70;1.50;;;3.00;98.20;;;;;;4986334;28;20473;-74
2022/01/13 04:05:59;;;;;;;2.10;1.90;;;3.00;98.20;;;;;;4987805;28;20489;-75
2022/01/13 04:08:26;;;;;;;1.70;1.40;;;3.00;98.20;;;;;;4987035;28;20476;-74
2022/01/13 04:11:16;;;;;;;1.67;1.40;;;3.00;98.20;;;;;;4986930;28;20549;-75
2022/01/13 04:13:50;;;;;;;1.63;1.40;;;3.00;98.20;;;;;;4984086;28;20464;-74
2022/01/13 04:16:19;;;;;;;1.70;1.40;;;2.90;98.20;;;;;;4986210;28;20475;-74
2022/01/13 04:18:48;;;;;;;2.77;2.57;;;3.00;98.20;;;;;;4983962;28;20457;-75
2022/01/13 04:21:17;;;;;;;1.70;1.50;;;2.90;98.20;;;;;;4985121;28;20463;-74
2022/01/13 04:23:45;;;;;;;1.70;1.50;;;3.00;98.20;;;;;;4991577;28;20489;-74
2022/01/13 04:26:15;;;;;;;1.63;1.40;;;3.00;98.20;;;;;;4991651;28;20480;-74
2022/01/13 04:28:42;;;;;;;1.70;1.50;;;3.00;98.20;;;;;;4985352;28;20563;-74
2022/01/13 04:31:09;;;;;;;1.67;1.40;;;3.00;98.20;;;;;;4990968;28;20457;-74
2022/01/13 04:33:38;;;;;;;1.67;1.40;;;3.00;98.20;;;;;;4993724;28;20460;-74
2022/01/13 04:36:08;;;;;;;1.67;1.40;;;3.00;98.20;;;;;;4988157;28;20472;-75
2022/01/13 04:38:35;;;;;;;1.70;1.50;;;3.00;98.20;;;;;;4987027;28;20583;-74
2022/01/13 04:41:04;;;;;;;1.70;1.50;;;3.00;98.20;;;;;;4988309;28;20544;-74
2022/01/13 04:43:32;;;;;;;1.70;1.40;;;2.90;98.20;;;;;;4994518;28;20540;-75
2022/01/13 04:45:59;;;;;;;1.67;1.37;;;2.90;98.20;;;;;;4990602;28;20480;-74
2022/01/13 04:48:26;;;;;;;1.70;1.40;;;2.90;98.20;;;;;;4990552;28;20469;-74
2022/01/13 04:50:52;;;;;;;1.70;1.53;;;2.90;98.20;;;;;;4989859;28;20828;-74
2022/01/13 04:53:21;;;;;;;2.07;1.87;;;2.90;98.20;;;;;;4986977;28;20484;-74
2022/01/13 04:55:52;;;;;;;1.70;1.40;;;2.90;98.20;;;;;;4990379;28;20516;-74
2022/01/13 04:58:21;;;;;;;1.70;1.40;;;2.90;98.20;;;;;;4997952;28;20466;-74
2022/01/13 05:00:48;;;;;;;1.70;1.50;;;2.90;98.20;;;;;;4989225;28;20504;-74
2022/01/13 05:03:15;;;;;;;1.60;1.40;;;2.90;98.20;;;;;;4990333;28;20499;-75
2022/01/13 05:05:42;;;;;;;1.70;1.40;;;2.90;98.20;;;;;;4990190;28;20631;-74
2022/01/13 05:08:09;;;;;;;1.60;1.40;;;2.90;98.20;;;;;;4989519;28;20461;-75
2022/01/13 05:10:37;;;;;;;1.93;1.73;;;2.90;98.20;;;;;;4988486;28;20465;-75
2022/01/13 05:13:08;;;;;;;1.67;1.47;;;2.90;98.20;;;;;;4985687;28;20485;-74
2022/01/13 05:15:36;;;;;;;1.60;1.30;;;2.80;98.20;;;;;;4989765;28;20859;-74
2022/01/13 05:20:58;;;;;;;1.60;1.40;;;2.80;98.20;;;;;;4986468;28;20452;-74
2022/01/13 05:23:24;;;;;;;1.63;1.37;;;2.80;98.20;;;;;;4989638;28;20527;-74
2022/01/13 05:25:53;;;;;;;1.67;1.50;;;2.80;98.20;;;;;;4990946;28;20579;-75
2022/01/13 05:28:20;;;;;;;1.70;1.50;;;2.80;98.20;;;;;;4991316;28;20806;-74
2022/01/13 05:30:47;;;;;;;1.70;1.40;;;2.80;98.20;;;;;;4988946;28;20468;-74
2022/01/13 05:33:13;;;;;;;1.70;1.50;;;2.80;98.20;;;;;;4988594;28;20492;-74
2022/01/13 05:35:41;;;;;;;1.60;1.40;;;2.80;98.20;;;;;;4989323;28;20471;-74
2022/01/13 05:38:09;;;;;;;1.70;1.50;;;2.80;98.20;;;;;;4989363;28;20473;-74
2022/01/13 05:40:37;;;;;;;1.70;1.50;;;2.80;98.20;;;;;;4989556;28;20469;-74
2022/01/13 05:43:06;;;;;;;1.87;1.77;;;2.80;98.20;;;;;;4987227;28;20485;-74
2022/01/13 05:45:33;;;;;;;1.60;1.40;;;2.80;98.20;;;;;;4986191;28;20555;-75
2022/01/13 05:48:01;;;;;;;1.70;1.50;;;2.80;98.20;;;;;;4989067;28;20560;-74
2022/01/13 05:50:30;;;;;;;1.70;1.60;;;2.70;98.20;;;;;;4984650;28;20922;-75
2022/01/13 05:52:57;;;;;;;1.67;1.40;;;2.70;98.20;;;;;;4983542;28;20507;-74
2022/01/13 05:55:24;;;;;;;1.67;1.47;;;2.70;98.20;;;;;;4986580;28;20465;-74
2022/01/13 05:57:51;;;;;;;1.70;1.50;;;2.70;98.20;;;;;;4999883;28;20469;-74
2022/01/13 06:00:21;;;;;;;1.67;1.40;;;2.70;98.20;;;;;;4991880;28;20837;-75
2022/01/13 06:02:48;;;;;;;1.70;1.40;;;2.70;98.20;;;;;;4988676;28;20485;-75
2022/01/13 06:05:16;;;;;;;1.70;1.50;;;2.70;98.20;;;;;;4996289;28;20490;-74
2022/01/13 06:07:43;;;;;;;1.60;1.40;;;2.70;98.20;;;;;;4991606;28;20469;-75
2022/01/13 06:10:14;;;;;;;1.70;1.40;;;2.70;98.20;;;;;;4988005;28;20461;-75
2022/01/13 06:12:41;;;;;;;1.70;1.50;;;2.70;98.20;;;;;;4988603;28;20923;-75
2022/01/13 06:15:10;;;;;;;1.67;1.40;;;2.70;98.20;;;;;;4988741;28;20464;-74
2022/01/13 06:17:40;;;;;;;1.63;1.40;;;2.70;98.20;;;;;;4986491;28;20557;-74
2022/01/13 06:20:09;;;;;;;1.67;1.40;;;2.70;98.20;;;;;;4987908;28;20465;-75
2022/01/13 06:22:36;;;;;;;1.67;1.50;;;2.70;98.20;;;;;;4984914;28;20476;-74
2022/01/13 06:25:03;;;;;;;1.70;1.50;;;2.60;98.20;;;;;;4988968;28;21008;-75
2022/01/13 06:27:30;;;;;;;1.70;1.50;;;2.60;98.20;;;;;;4985433;28;21084;-74
2022/01/13 06:29:56;;;;;;;1.70;1.50;;;2.60;98.20;;;;;;4990602;28;20472;-74
2022/01/13 06:32:23;;;;;;;1.70;1.50;;;2.60;98.20;;;;;;4988165;28;20489;-74
2022/01/13 06:34:52;;;;;;;1.70;1.40;;;2.60;98.20;;;;;;4985946;28;20461;-74
2022/01/13 06:37:20;;;;;;;1.70;1.53;;;2.50;98.20;;;;;;4986871;28;20465;-74
2022/01/13 06:39:47;;;;;;;1.60;1.40;;;2.50;98.20;;;;;;4991862;28;20469;-74
2022/01/13 06:42:15;;;;;;;1.67;1.47;;;2.50;98.20;;;;;;4987295;28;20496;-75
2022/01/13 06:44:42;;;;;;;1.67;1.43;;;2.40;98.20;;;;;;4988391;28;20562;-76
2022/01/13 06:47:09;;;;;;;1.67;1.40;;;2.40;98.20;;;;;;4987812;28;20461;-74
2022/01/13 06:49:36;;;;;;;1.70;1.50;;;2.30;98.20;;;;;;4988367;28;20465;-74
2022/01/13 06:52:06;;;;;;;1.60;1.40;;;2.30;98.20;;;;;;4982533;28;20489;-74
2022/01/13 06:54:32;;;;;;;1.63;1.40;;;2.30;98.20;;;;;;4984545;28;20461;-75
2022/01/13 06:56:59;;;;;;;1.70;1.53;;;2.40;98.20;;;;;;4992570;28;20532;-74
2022/01/13 06:59:26;;;;;;;1.73;1.63;;;2.30;98.20;;;;;;4988704;28;20472;-74
2022/01/13 07:01:53;;;;;;;1.70;1.50;;;2.30;98.20;;;;;;4991449;28;20744;-74
2022/01/13 07:04:20;;;;;;;1.67;1.40;;;2.30;98.20;;;;;;4982949;28;20465;-75
2022/01/13 07:06:47;;;;;;;1.90;1.70;;;2.30;98.20;;;;;;4985428;28;20472;-75
2022/01/13 07:09:17;;;;;;;1.60;1.40;;;2.30;98.20;;;;;;4986153;28;20461;-75
2022/01/13 07:11:44;;;;;;;1.70;1.50;;;2.40;98.20;;;;;;4986508;28;20555;-74
2022/01/13 07:14:11;;;;;;;1.70;1.50;;;2.40;98.20;;;;;;4984418;28;20492;-75
2022/01/13 07:16:39;;;;;;;1.67;1.50;;;2.40;98.20;;;;;;4986281;28;20465;-75
2022/01/13 07:19:06;;;;;;;1.70;1.53;;;2.40;98.20;;;;;;4985328;28;20877;-75
2022/01/13 07:21:35;;;;;;;1.70;1.60;;;2.40;98.20;;;;;;4983378;28;20499;-75
2022/01/13 07:24:02;;;;;;;1.70;1.53;;;2.40;98.20;;;;;;4988458;28;20469;-74
2022/01/13 07:26:30;;;;;;;6.33;2.70;;;2.30;98.20;;;;;;4986034;28;20492;-75
2022/01/13 07:28:57;;;;;;;1.70;1.50;;;2.30;98.20;;;;;;4991715;28;20476;-75
2022/01/13 07:31:24;;;;;;;1.70;1.60;;;2.40;98.20;;;;;;4983342;28;20880;-74
2022/01/13 07:33:50;;;;;;;1.63;1.40;;;2.30;98.20;;;;;;4988174;28;20986;-74
2022/01/13 07:36:17;;;;;;;1.67;1.47;;;2.30;98.20;;;;;;4986821;28;20462;-74
2022/01/13 07:38:44;;;;;;;1.70;1.60;;;2.30;98.20;;;;;;4987914;28;20865;-75
2022/01/13 07:41:10;;;;;;;1.63;1.40;;;2.30;98.20;;;;;;4989673;28;20468;-75
2022/01/13 07:43:42;;;;;;;1.70;1.50;;;2.30;98.20;;;;;;4990439;28;20791;-74
2022/01/13 07:46:09;;;;;;;1.70;1.60;;;2.20;98.20;;;;;;4987361;28;20942;-75
2022/01/13 07:48:35;;;;;;;1.70;1.50;;;2.20;98.20;;;;;;4988111;28;20469;-74
2022/01/13 07:51:02;;;;;;;1.70;1.60;;;2.20;98.20;;;;;;4982377;28;20638;-74
2022/01/13 07:53:29;;;;;;;1.70;1.40;;;2.20;98.20;;;;;;4988122;28;20464;-74
2022/01/13 07:55:56;;;;;;;1.67;1.47;;;2.20;98.20;;;;;;4991282;28;20462;-74
2022/01/13 07:58:23;;;;;;;1.70;1.50;;;2.20;98.20;;;;;;4994103;28;20539;-73
2022/01/13 08:00:51;;;;;;;1.70;1.50;;;2.20;98.20;;;;;;4991121;28;21036;-73
2022/01/13 08:03:18;;;;;;;1.70;1.60;;;2.20;98.20;;;;;;4990227;28;20485;-75
2022/01/13 08:05:45;;;;;;;1.67;1.47;;;2.20;98.20;;;;;;4990353;28;20596;-74
2022/01/13 08:08:11;;;;;;;1.70;1.50;;;2.20;98.20;;;;;;4992260;28;20479;-73
2022/01/13 08:10:38;;;;;;;1.73;1.63;;;2.20;98.20;;;;;;4991155;28;20979;-73
2022/01/13 08:13:05;;;;;;;1.67;1.50;;;2.20;98.20;;;;;;4988766;28;20488;-73
2022/01/13 08:15:34;;;;;;;1.70;1.60;;;2.20;98.20;;;;;;4991752;28;20953;-73
2022/01/13 08:20:47;;;;;;;3.17;2.97;;;2.20;98.20;;;;;;4990759;28;20452;-73
2022/01/13 08:23:14;;;;;;;1.70;1.60;;;2.20;98.20;;;;;;4982579;28;20492;-73
2022/01/13 08:25:41;;;;;;;1.67;1.40;;;2.30;98.20;;;;;;4991149;28;20493;-74
2022/01/13 08:28:08;;;;;;;1.93;1.73;;;2.30;98.20;;;;;;4996851;28;20488;-73
2022/01/13 08:30:35;;;;;;;1.73;1.63;;;2.30;98.20;;;;;;4986320;28;20471;-74
2022/01/13 08:33:03;;;;;;;1.63;1.50;;;2.30;98.20;;;;;;4991667;28;20766;-74
2022/01/13 08:35:30;;;;;;;1.70;1.50;;;2.30;98.20;;;;;;4992486;28;20469;-73
2022/01/13 08:38:04;;;;;;;1.67;1.50;;;2.30;98.20;;;;;;4993593;28;20488;-74
2022/01/13 08:40:32;;;;;;;1.70;1.60;;;2.40;98.20;;;;;;4987633;28;20558;-73
2022/01/13 08:42:58;;;;;;;1.67;1.40;;;2.40;98.20;;;;;;4997431;28;20483;-74
2022/01/13 08:45:25;;;;;;;2.10;1.90;;;2.40;98.20;;;;;;4988204;28;20489;-74
2022/01/13 08:47:52;;;;;;;1.60;1.40;;;2.40;98.20;;;;;;4993701;28;20483;-74
2022/01/13 08:50:20;;;;;;;1.63;1.40;;;2.40;98.20;;;;;;4985312;28;20468;-74
2022/01/13 08:52:47;;;;;;;1.70;1.43;;;2.50;98.20;;;;;;4993077;28;20940;-74
2022/01/13 08:55:13;;;;;;;1.67;1.50;;;2.50;98.20;;;;;;4987056;28;20472;-73
2022/01/13 08:57:40;;;;;;;1.80;1.40;;;2.50;98.20;;;;;;4999568;28;20491;-74
2022/01/13 09:00:10;;;;;;;1.70;1.60;;;2.50;98.20;;;;;;4988353;28;20465;-74
2022/01/13 09:02:37;;;;;;;1.97;1.77;;;2.50;98.20;;;;;;4987957;28;20495;-73
2022/01/13 09:05:05;;;;;;;1.70;1.60;;;2.60;98.20;;;;;;4988729;28;20881;-73
2022/01/13 09:07:33;;;;;;;1.70;1.50;;;2.60;98.20;;;;;;4993718;28;20491;-73
2022/01/13 09:10:00;;;;;;;1.60;1.40;;;2.60;98.20;;;;;;4988469;28;21012;-74
2022/01/13 09:12:27;;;;;;;1.70;1.50;;;2.60;98.20;;;;;;4988959;28;20495;-74
2022/01/13 09:15:03;;;;;;;1.70;1.60;;;2.70;98.20;;;;;;4993858;28;20472;-73
2022/01/13 09:17:30;;;;;;;1.70;1.57;;;2.60;98.20;;;;;;4991752;28;20488;-74
2022/01/13 09:19:57;;;;;;;1.70;1.53;;;2.60;98.20;;;;;;4988965;28;20473;-74
2022/01/13 09:22:24;;;;;;;2.33;2.13;;;2.60;98.20;;;;;;4990037;28;20492;-73
2022/01/13 09:24:52;;;;;;;1.70;1.50;;;2.70;98.20;;;;;;4989892;28;20469;-73
2022/01/13 09:27:19;;;;;;;1.70;1.50;;;2.70;98.20;;;;;;4990964;28;20811;-73
2022/01/13 09:29:45;;;;;;;1.70;1.50;;;2.80;98.20;;;;;;4993758;28;20504;-73
2022/01/13 09:32:12;;;;;;;2.83;2.63;;;2.80;98.20;;;;;;4986206;28;20677;-74
2022/01/13 09:34:41;;;;;;;1.70;1.50;;;2.90;98.20;;;;;;4994389;28;20465;-73
2022/01/13 09:37:08;;;;;;;1.70;1.50;;;2.90;98.20;;;;;;4981563;28;20999;-73
2022/01/13 09:39:35;;;;;;;1.67;1.40;;;3.00;98.20;;;;;;4993719;28;20961;-72
2022/01/13 09:42:05;;;;;;;1.70;1.40;;;3.00;98.20;;;;;;4985776;28;20881;-73
2022/01/13 09:44:33;;;;;;;1.70;1.53;;;3.00;98.20;;;;;;4987919;28;20469;-72
2022/01/13 09:47:00;;;;;;;1.70;1.40;;;3.00;98.20;;;;;;4983918;28;20742;-73
2022/01/13 09:49:27;;;;;;;1.70;1.50;;;3.00;98.20;;;;;;4988750;28;20465;-75
2022/01/13 09:51:54;;;;;;;1.70;1.60;;;3.00;98.20;;;;;;4979569;28;20488;-72
2022/01/13 09:54:20;;;;;;;1.70;1.60;;;3.10;98.20;;;;;;4987462;28;20472;-75
2022/01/13 09:56:48;;;;;;;1.70;1.40;;;3.10;98.20;;;;;;4982668;28;20521;-75
2022/01/13 09:59:16;;;;;;;1.70;1.50;;;3.10;98.20;;;;;;4992532;28;20461;-75
2022/01/13 10:01:42;;;;;;;1.70;1.40;;;3.20;98.20;;;;;;4976920;28;20497;-75
2022/01/13 10:04:09;;;;;;;1.60;1.30;;;3.30;98.20;;;;;;4988659;28;20472;-75
2022/01/13 10:06:44;;;;;;;1.60;1.40;;;3.30;98.20;;;;;;4983571;28;20486;-75
2022/01/13 10:09:11;;;;;;;1.70;1.40;;;3.30;98.20;;;;;;4988129;28;20460;-74
2022/01/13 10:11:41;;;;;;;1.70;1.40;;;3.40;98.20;;;;;;4984738;28;20488;-74
2022/01/13 10:14:17;;;;;;;1.70;1.40;;;3.50;98.20;;;;;;4993665;28;20892;-74
2022/01/13 10:16:48;;;;;;;1.67;1.47;;;3.50;98.20;;;;;;4985820;28;20484;-74
2022/01/13 10:19:31;;;;;;;1.63;1.30;;;3.50;98.20;;;;;;4993238;28;20505;-73
2022/01/13 10:22:02;;;;;;;1.67;1.30;;;3.60;98.20;;;;;;4978774;28;20515;-74
2022/01/13 10:24:31;;;;;;;1.60;1.40;;;3.60;98.20;;;;;;4987634;28;20472;-73
2022/01/13 10:27:07;;;;;;;1.67;1.30;;;3.70;98.20;;;;;;4988214;28;20487;-74
2022/01/13 10:29:44;;;;;;;1.70;1.40;;;3.80;98.20;;;;;;4990079;28;20564;-74
2022/01/13 10:32:15;;;;;;;1.67;1.47;;;3.80;98.20;;;;;;4985434;28;20565;-74
2022/01/13 10:34:45;;;;;;;1.60;1.30;;;3.90;98.20;;;;;;4988709;28;20477;-73
2022/01/13 10:37:14;;;;;;;1.70;1.50;;;3.90;98.20;;;;;;4985458;28;20710;-74
2022/01/13 10:39:57;;;;;;;1.67;1.43;;;4.00;98.20;;;;;;4988937;28;20476;-74
2022/01/13 10:45:32;;;;;;;1.67;1.40;;;4.10;98.20;;;;;;4985493;28;20479;-73
2022/01/13 10:48:03;;;;;;;1.60;1.30;;;4.20;98.20;;;;;;4995650;28;20488;-73
2022/01/13 10:50:32;;;;;;;1.67;1.40;;;4.20;98.20;;;;;;4985552;28;20531;-73
2022/01/13 10:53:05;;;;;;;1.63;1.30;;;4.30;98.20;;;;;;4989089;28;20992;-74
2022/01/13 10:55:36;;;;;;;1.70;1.50;;;4.30;98.20;;;;;;4987620;28;20476;-73
2022/01/13 10:58:03;;;;;;;1.67;1.40;;;4.40;98.20;;;;;;4996633;28;20499;-74
2022/01/13 11:00:33;;;;;;;1.60;1.30;;;4.40;98.20;;;;;;4983615;28;21015;-74
2022/01/13 11:03:07;;;;;;;1.70;1.47;;;4.40;98.20;;;;;;4990228;28;20488;-74
2022/01/13 11:05:37;;;;;;;2.83;2.63;;;4.30;98.20;;;;;;4978293;28;20925;-73
2022/01/13 11:08:07;;;;;;;1.63;1.40;;;4.30;98.20;;;;;;4991502;28;20488;-73
2022/01/13 11:10:35;;;;;;;1.67;1.30;;;4.20;98.20;;;;;;4982946;28;20969;-73
2022/01/13 11:13:04;;;;;;;1.70;1.50;;;4.20;98.20;;;;;;4988428;28;20484;-74
2022/01/13 11:15:32;;;;;;;1.77;1.67;;;4.20;98.20;;;;;;4983725;28;20508;-74
2022/01/13 11:18:05;;;;;;;1.63;1.30;;;4.20;98.20;;;;;;4994472;28;20484;-74
2022/01/13 11:20:33;;;;;;;2.33;2.13;;;4.20;98.20;;;;;;4983234;28;20849;-74
2022/01/13 11:23:00;;;;;;;1.70;1.40;;;4.10;98.20;;;;;;4987805;28;20495;-74
2022/01/13 11:25:27;;;;;;;1.60;1.30;;;4.10;98.20;;;;;;4982661;28;20473;-75
2022/01/13 11:27:57;;;;;;;1.70;1.40;;;4.10;98.20;;;;;;4990424;28;20481;-74
2022/01/13 11:30:27;;;;;;;2.80;2.60;;;4.10;98.20;;;;;;4981060;28;20469;-71
2022/01/13 11:32:55;;;;;;;1.70;1.50;;;4.20;98.20;;;;;;4991817;28;20484;-71
2022/01/13 11:35:25;;;;;;;1.70;1.47;;;4.20;98.20;;;;;;4985438;28;20472;-71
2022/01/13 11:37:56;;;;;;;1.70;1.50;;;4.30;98.20;;;;;;4989186;28;20507;-74
2022/01/13 11:40:35;;;;;;;1.70;1.50;;;4.20;98.20;;;;;;4981082;28;20473;-73
2022/01/13 11:43:04;;;;;;;1.70;1.50;;;4.20;98.20;;;;;;4988571;28;20494;-75
2022/01/13 11:45:36;;;;;;;1.70;1.40;;;4.20;98.20;;;;;;4983872;28;20916;-75
2022/01/13 11:48:18;;;;;;;2.10;1.90;;;4.20;98.20;;;;;;4993544;28;20491;-72
2022/01/13 11:50:50;;;;;;;1.60;1.30;;;4.20;98.20;;;;;;4983259;28;20465;-72
2022/01/13 11:53:24;;;;;;;1.70;1.50;;;4.30;98.20;;;;;;4970802;28;20921;-73
2022/01/13 11:55:53;;;;;;;1.70;1.47;;;4.30;98.20;;;;;;4971257;28;21143;-72
2022/01/13 11:58:23;;;;;;;1.70;1.50;;;4.30;98.20;;;;;;4999195;28;20471;-72
2022/01/13 12:00:51;;;;;;;9.53;2.30;;;4.30;98.20;;;;;;4972828;28;20560;-72
2022/01/13 12:03:31;;;;;;;1.60;1.37;;;4.40;98.20;;;;;;4986009;28;20576;-73
2022/01/13 12:05:59;;;;;;;2.33;2.13;;;4.40;98.20;;;;;;4974954;28;20469;-71
2022/01/13 12:08:45;;;;;;;1.60;1.30;;;4.40;98.20;;;;;;4995954;28;20475;-72
2022/01/13 12:11:36;;;;;;;1.77;1.67;;;4.50;98.20;;;;;;4971974;28;20479;-72
2022/01/13 12:14:04;;;;;;;1.70;1.50;;;4.50;98.20;;;;;;4990957;28;20548;-73
2022/01/13 12:16:57;;;;;;;2.10;1.90;;;4.50;98.20;;;;;;4982326;28;20499;-72
2022/01/13 12:19:28;;;;;;;1.63;1.33;;;4.50;98.20;;;;;;4971712;28;20583;-72
2022/01/13 12:22:03;;;;;;;1.70;1.60;;;4.60;98.20;;;;;;4980297;28;20841;-72
2022/01/13 12:24:51;;;;;;;1.60;1.30;;;4.60;98.20;;;;;;4984762;28;20918;-73
2022/01/13 12:27:20;;;;;;;1.70;1.47;;;4.60;98.20;;;;;;4988030;28;20484;-73
2022/01/13 12:29:49;;;;;;;1.70;1.60;;;4.70;98.20;;;;;;4986758;28;20516;-73
2022/01/13 12:32:33;;;;;;;1.70;1.43;;;4.70;98.20;;;;;;4978891;28;21228;-73
2022/01/13 12:35:00;;;;;;;1.70;1.60;;;4.70;98.20;;;;;;4984186;28;20464;-73
2022/01/13 12:37:29;;;;;;;1.67;1.40;;;4.80;98.20;;;;;;4983121;28;20479;-72
2022/01/13 12:40:04;;;;;;;1.63;1.30;;;4.80;98.20;;;;;;4985455;28;20464;-72
2022/01/13 12:42:37;;;;;;;1.70;1.50;;;4.90;98.20;;;;;;4982308;28;20499;-72
2022/01/13 12:47:50;;;;;;;1.70;1.50;;;5.00;98.20;;;;;;4990305;28;20483;-74
2022/01/13 12:50:20;;;;;;;1.70;1.50;;;5.10;98.20;;;;;;4981357;28;20809;-73
2022/01/13 12:52:48;;;;;;;2.00;1.80;;;5.10;98.20;;;;;;4987366;28;20897;-73
2022/01/13 12:55:17;;;;;;;1.63;1.40;;;5.20;98.20;;;;;;4986902;28;20889;-73
2022/01/13 12:57:47;;;;;;;1.67;1.30;;;5.40;98.20;;;;;;4987801;28;20479;-73
2022/01/13 13:00:16;;;;;;;1.70;1.30;;;5.60;98.20;;;;;;4990660;28;20948;-73
2022/01/13 13:02:55;;;;;;;1.70;1.40;;;5.80;98.20;;;;;;4989857;28;20491;-73
2022/01/13 13:05:37;;;;;;;1.70;1.40;;;6.10;98.20;;;;;;4989457;28;20680;-74
2022/01/13 13:08:04;;;;;;;1.70;1.40;;;6.30;98.20;;;;;;4990125;28;20475;-73
2022/01/13 13:10:32;;;;;;;1.70;1.40;;;6.50;98.20;;;;;;4986017;28;20465;-73
2022/01/13 13:13:02;;;;;;;1.70;1.40;;;6.70;98.20;;;;;;4990872;28;20519;-73
2022/01/13 13:15:41;;;;;;;3.37;3.17;;;6.90;98.20;;;;;;4986244;28;20465;-73
2022/01/13 13:18:18;;;;;;;1.70;1.40;;;7.00;98.20;;;;;;4993497;28;20492;-72
2022/01/13 13:20:48;;;;;;;1.70;1.30;;;7.20;98.20;;;;;;4985842;28;20472;-73
2022/01/13 13:23:16;;;;;;;1.70;1.50;;;7.40;98.20;;;;;;4975625;28;20488;-72
2022/01/13 13:25:47;;;;;;;1.60;1.23;;;7.50;98.20;;;;;;4987471;28;20473;-72